createdAt,value
2018-08-09T00:00:23.970Z,100449.98
2018-08-09T00:02:53.853Z,100452.36
2018-08-09T00:05:24.052Z,100450.97
2018-08-09T00:07:52.799Z,100455.78
2018-08-09T00:10:21.439Z,100456.45
2018-08-09T00:12:50.247Z,100459.27
2018-08-09T00:18:06.793Z,100460.41
2018-08-09T00:20:35.682Z,100459.91
2018-08-09T00:23:04.437Z,100465.27
2018-08-09T00:25:34.670Z,100459.88
2018-08-09T00:28:03.366Z,100461.56
2018-08-09T00:30:32.344Z,100466.16
2018-08-09T00:33:01.266Z,100457.51
2018-08-09T00:35:30.026Z,100461.53
2018-08-09T00:37:58.815Z,100462.49
2018-08-09T00:40:27.542Z,100461.35
2018-08-09T00:42:56.240Z,100460.09
2018-08-09T00:45:24.986Z,100465.11
2018-08-09T00:47:53.641Z,100463.52
2018-08-09T00:50:22.295Z,100455.42
2018-08-09T00:52:58.723Z,100452.59
2018-08-09T00:55:27.773Z,100453.70
2018-08-09T00:57:57.642Z,100461.84
2018-08-09T01:00:27.364Z,100469.33
2018-08-09T01:02:55.798Z,100462.73
2018-08-09T01:05:24.630Z,100461.48
2018-08-09T01:07:54.187Z,100466.80
2018-08-09T01:18:46.586Z,100455.50
2018-08-09T01:21:16.233Z,100458.38
2018-08-09T01:23:52.640Z,100454.81
2018-08-09T01:26:28.942Z,100455.85
2018-08-09T01:29:13.862Z,100468.70
2018-08-09T01:31:42.446Z,100460.00
2018-08-09T01:34:11.128Z,100463.59
2018-08-09T01:36:39.923Z,100459.80
2018-08-09T01:39:08.720Z,100462.17
2018-08-09T01:41:37.368Z,100459.38
2018-08-09T01:44:06.424Z,100463.89
2018-08-09T01:46:35.111Z,100463.95
2018-08-09T01:49:03.849Z,100464.23
2018-08-09T01:51:32.562Z,100469.20
2018-08-09T01:54:01.349Z,100469.55
2018-08-09T01:56:30.009Z,100461.67
2018-08-09T02:01:46.265Z,100465.80
2018-08-09T02:04:15.540Z,100467.76
2018-08-09T02:06:44.265Z,100473.30
2018-08-09T02:09:13.170Z,100470.08
2018-08-09T02:11:42.204Z,100464.89
2018-08-09T02:20:09.714Z,100476.04
2018-08-09T02:28:39.526Z,100480.51
2018-08-09T02:33:55.931Z,100482.08
2018-08-09T02:39:13.218Z,100484.40
2018-08-09T02:41:41.916Z,100485.71
2018-08-09T02:44:10.550Z,100491.10
2018-08-09T02:46:39.362Z,100490.22
2018-08-09T02:49:07.968Z,100490.47
2018-08-09T02:51:40.010Z,100492.23
2018-08-09T02:54:09.021Z,100491.69
2018-08-09T02:56:38.076Z,100494.21
2018-08-09T02:59:07.119Z,100491.34
2018-08-09T03:01:36.230Z,100496.11
2018-08-09T03:04:05.793Z,100495.00
2018-08-09T03:06:34.778Z,100492.17
2018-08-09T03:09:04.895Z,100493.59
2018-08-09T03:11:33.662Z,100501.67
2018-08-09T03:14:05.137Z,100499.61
2018-08-09T03:16:33.888Z,100500.86
2018-08-09T03:19:04.125Z,100510.63
2018-08-09T03:21:32.823Z,100507.08
2018-08-09T03:24:01.817Z,100503.41
2018-08-09T03:26:30.541Z,100504.17
2018-08-09T03:28:59.383Z,100505.55
2018-08-09T03:34:22.875Z,100511.47
2018-08-09T03:36:51.824Z,100519.64
2018-08-09T03:39:21.234Z,100513.61
2018-08-09T03:41:50.135Z,100508.79
2018-08-09T03:44:19.118Z,100506.02
2018-08-09T03:46:48.240Z,100507.45
2018-08-09T03:49:17.186Z,100510.15
2018-08-09T03:51:46.366Z,100510.66
2018-08-09T03:54:15.444Z,100509.65
2018-08-09T03:56:44.396Z,100520.77
2018-08-09T03:59:13.131Z,100514.11
2018-08-09T04:01:42.800Z,100518.42
2018-08-09T04:04:11.435Z,100519.22
2018-08-09T04:06:40.155Z,100524.34
2018-08-09T04:09:09.126Z,100517.02
2018-08-09T04:11:38.412Z,100522.41
2018-08-09T04:14:06.936Z,100517.61
2018-08-09T04:19:25.033Z,100509.97
2018-08-09T04:22:04.028Z,100512.67
2018-08-09T04:24:34.241Z,100510.90
2018-08-09T04:27:04.380Z,100513.09
2018-08-09T04:29:33.104Z,100510.69
2018-08-09T04:32:02.413Z,100513.14
2018-08-09T04:34:31.298Z,100517.95
2018-08-09T04:37:00.647Z,100518.87
2018-08-09T04:39:29.546Z,100526.80
2018-08-09T04:41:58.535Z,100531.67
2018-08-09T04:44:27.805Z,100528.50
2018-08-09T04:46:56.988Z,100531.23
2018-08-09T04:49:26.060Z,100528.45
2018-08-09T04:51:56.367Z,100528.96
2018-08-09T04:54:25.283Z,100532.77
2018-08-09T04:56:53.864Z,100536.16
2018-08-09T04:59:22.601Z,100537.45
2018-08-09T05:01:51.298Z,100539.52
2018-08-09T05:04:20.098Z,100527.79
2018-08-09T05:06:48.769Z,100531.59
2018-08-09T05:09:17.600Z,100541.05
2018-08-09T05:11:46.297Z,100532.95
2018-08-09T05:14:15.166Z,100534.75
2018-08-09T05:16:43.886Z,100535.59
2018-08-09T05:19:12.603Z,100533.83
2018-08-09T05:21:41.378Z,100530.11
2018-08-09T05:24:10.148Z,100530.14
2018-08-09T05:26:38.839Z,100526.84
2018-08-09T05:29:07.614Z,100525.06
2018-08-09T05:31:36.379Z,100525.28
2018-08-09T05:34:05.090Z,100522.64
2018-08-09T05:36:33.750Z,100515.83
2018-08-09T05:39:05.311Z,100514.05
2018-08-09T05:41:34.125Z,100511.95
2018-08-09T05:44:05.274Z,100502.83
2018-08-09T05:46:34.020Z,100510.61
2018-08-09T05:49:02.851Z,100508.81
2018-08-09T05:51:31.674Z,100518.95
2018-08-09T05:54:00.430Z,100521.25
2018-08-09T05:56:29.104Z,100516.16
2018-08-09T05:58:57.853Z,100516.08
2018-08-09T06:01:26.626Z,100518.17
2018-08-09T06:03:55.498Z,100518.84
2018-08-09T06:06:24.270Z,100530.74
2018-08-09T06:08:53.093Z,100537.58
2018-08-09T06:11:22.422Z,100537.11
2018-08-09T06:13:52.197Z,100538.70
2018-08-09T06:16:22.778Z,100544.72
2018-08-09T06:18:58.456Z,100536.16
2018-08-09T06:21:27.138Z,100539.83
2018-08-09T06:23:56.329Z,100542.05
2018-08-09T06:26:25.173Z,100543.89
2018-08-09T06:28:53.800Z,100538.86
2018-08-09T06:31:22.659Z,100541.79
2018-08-09T06:33:51.368Z,100541.23
2018-08-09T06:36:20.103Z,100541.91
2018-08-09T06:38:48.911Z,100542.25
2018-08-09T06:41:17.720Z,100535.94
2018-08-09T06:43:46.473Z,100543.11
2018-08-09T06:46:15.258Z,100538.06
2018-08-09T06:48:44.005Z,100538.64
2018-08-09T06:51:12.782Z,100544.59
2018-08-09T06:53:41.562Z,100542.11
2018-08-09T06:56:10.282Z,100541.86
2018-08-09T06:58:38.974Z,100545.13
2018-08-09T07:01:07.760Z,100538.77
2018-08-09T07:03:37.728Z,100547.34
2018-08-09T07:06:06.543Z,100541.53
2018-08-09T07:08:35.321Z,100550.29
2018-08-09T07:11:04.078Z,100546.80
2018-08-09T07:13:32.851Z,100546.48
2018-08-09T07:16:01.645Z,100542.20
2018-08-09T07:18:31.112Z,100537.55
2018-08-09T07:20:59.842Z,100543.50
2018-08-09T07:23:28.638Z,100543.09
2018-08-09T07:25:57.450Z,100530.18
2018-08-09T07:28:26.165Z,100539.66
2018-08-09T07:30:55.004Z,100540.30
2018-08-09T07:33:23.623Z,100534.96
2018-08-09T07:35:52.436Z,100532.58
2018-08-09T07:38:21.284Z,100526.84
2018-08-09T07:40:50.441Z,100526.74
2018-08-09T07:43:19.158Z,100527.20
2018-08-09T07:45:47.921Z,100523.61
2018-08-09T07:48:16.729Z,100513.91
2018-08-09T07:50:45.450Z,100520.33
2018-08-09T07:53:14.152Z,100510.86
2018-08-09T07:55:43.020Z,100507.95
2018-08-09T07:58:11.709Z,100503.84
2018-08-09T08:00:40.431Z,100501.00
2018-08-09T08:03:09.207Z,100503.53
2018-08-09T08:05:37.832Z,100499.39
2018-08-09T08:08:06.555Z,100494.13
2018-08-09T08:10:35.319Z,100496.50
2018-08-09T08:13:04.172Z,100494.96
2018-08-09T08:15:32.942Z,100490.09
2018-08-09T08:18:01.970Z,100483.77
2018-08-09T08:20:30.757Z,100482.88
2018-08-09T08:22:59.552Z,100480.67
2018-08-09T08:25:28.295Z,100473.09
2018-08-09T08:27:57.123Z,100476.61
2018-08-09T08:30:25.884Z,100467.37
2018-08-09T08:32:54.610Z,100469.97
2018-08-09T08:35:23.358Z,100463.80
2018-08-09T08:37:52.129Z,100453.67
2018-08-09T08:40:20.881Z,100460.70
2018-08-09T08:42:49.631Z,100450.05
2018-08-09T08:45:18.369Z,100456.71
2018-08-09T08:47:47.162Z,100456.69
2018-08-09T08:50:16.726Z,100455.25
2018-08-09T08:52:45.549Z,100451.56
2018-08-09T08:55:14.293Z,100446.75
2018-08-09T08:57:43.017Z,100445.68
2018-08-09T09:00:11.694Z,100430.13
2018-08-09T09:02:40.420Z,100433.09
2018-08-09T09:05:09.567Z,100428.98
2018-08-09T09:07:42.200Z,100428.14
2018-08-09T09:10:11.011Z,100419.84
2018-08-09T09:12:39.859Z,100425.02
2018-08-09T09:15:08.527Z,100420.88
2018-08-09T09:17:38.352Z,100420.97
2018-08-09T09:20:07.617Z,100420.05
2018-08-09T09:22:36.461Z,100413.20
2018-08-09T09:25:05.210Z,100417.22
2018-08-09T09:27:33.923Z,100413.77
2018-08-09T09:30:02.714Z,100413.83
2018-08-09T09:32:31.402Z,100408.08
2018-08-09T09:35:00.151Z,100403.24
2018-08-09T09:37:28.978Z,100390.63
2018-08-09T09:39:58.560Z,100388.41
2018-08-09T09:42:27.262Z,100371.09
2018-08-09T09:44:56.903Z,100376.05
2018-08-09T09:47:25.580Z,100375.02
2018-08-09T09:49:54.364Z,100373.03
2018-08-09T09:52:23.137Z,100368.12
2018-08-09T09:54:51.852Z,100368.20
2018-08-09T09:57:20.564Z,100361.25
2018-08-09T09:59:49.329Z,100356.70
2018-08-09T10:02:18.165Z,100350.49
2018-08-09T10:04:47.028Z,100345.00
2018-08-09T10:07:15.820Z,100339.20
2018-08-09T10:09:44.411Z,100339.17
2018-08-09T10:12:14.778Z,100324.31
2018-08-09T10:14:44.695Z,100326.81
2018-08-09T10:17:15.084Z,100329.34
2018-08-09T10:19:44.099Z,100323.13
2018-08-09T10:22:13.274Z,100321.02
2018-08-09T10:24:43.918Z,100315.73
2018-08-09T10:27:12.687Z,100308.06
2018-08-09T10:29:41.374Z,100306.99
2018-08-09T10:32:10.201Z,100300.59
2018-08-09T10:34:40.258Z,100299.16
2018-08-09T10:37:09.272Z,100293.31
2018-08-09T10:39:38.009Z,100290.06
2018-08-09T10:42:06.741Z,100281.94
2018-08-09T10:44:35.859Z,100279.63
2018-08-09T10:47:04.602Z,100270.70
2018-08-09T10:49:33.992Z,100263.83
2018-08-09T10:52:02.736Z,100264.08
2018-08-09T10:54:31.546Z,100262.38
2018-08-09T10:57:00.326Z,100254.59
2018-08-09T10:59:29.103Z,100250.59
2018-08-09T11:01:57.825Z,100249.58
2018-08-09T11:04:26.552Z,100235.29
2018-08-09T11:06:57.742Z,100243.66
2018-08-09T11:09:23.955Z,100231.67
2018-08-09T11:11:52.633Z,100230.73
2018-08-09T11:14:21.373Z,100221.29
2018-08-09T11:16:51.120Z,100224.35
2018-08-09T11:19:19.797Z,100223.71
2018-08-09T11:21:48.587Z,100213.61
2018-08-09T11:24:17.393Z,100225.89
2018-08-09T11:26:46.181Z,100213.45
2018-08-09T11:29:14.912Z,100206.41
2018-08-09T11:31:43.633Z,100202.66
2018-08-09T11:34:12.331Z,100197.22
2018-08-09T11:36:41.070Z,100193.63
2018-08-09T11:39:09.830Z,100189.78
2018-08-09T11:41:38.598Z,100185.27
2018-08-09T11:44:07.322Z,100180.59
2018-08-09T11:46:36.942Z,100173.12
2018-08-09T11:49:05.663Z,100171.47
2018-08-09T11:51:34.379Z,100168.95
2018-08-09T11:54:03.128Z,100163.53
2018-08-09T11:56:31.921Z,100159.14
2018-08-09T11:59:00.553Z,100156.50
2018-08-09T12:01:29.249Z,100148.09
2018-08-09T12:03:57.957Z,100147.84
2018-08-09T12:06:26.654Z,100152.83
2018-08-09T12:08:55.449Z,100150.44
2018-08-09T12:11:24.247Z,100143.67
2018-08-09T12:13:52.907Z,100138.94
2018-08-09T12:16:21.600Z,100123.43
2018-08-09T12:18:50.283Z,100121.92
2018-08-09T12:21:19.077Z,100116.39
2018-08-09T12:23:47.760Z,100112.95
2018-08-09T12:26:24.166Z,100109.34
2018-08-09T12:28:52.887Z,100106.97
2018-08-09T12:31:21.606Z,100099.73
2018-08-09T12:33:50.383Z,100104.54
2018-08-09T12:36:19.146Z,100087.33
2018-08-09T12:38:47.855Z,100090.05
2018-08-09T12:41:16.591Z,100093.33
2018-08-09T12:43:45.254Z,100088.58
2018-08-09T12:46:14.021Z,100080.70
2018-08-09T12:48:42.699Z,100072.53
2018-08-09T12:51:11.434Z,100060.20
2018-08-09T12:53:40.189Z,100076.70
2018-08-09T12:56:08.972Z,100062.78
2018-08-09T12:58:37.981Z,100061.82
2018-08-09T13:01:06.672Z,100055.84
2018-08-09T13:03:35.605Z,100044.00
2018-08-09T13:06:04.332Z,100035.98
2018-08-09T13:08:33.229Z,100034.91
2018-08-09T13:11:02.004Z,100038.81
2018-08-09T13:13:30.824Z,100028.83
2018-08-09T13:15:59.573Z,100015.16
2018-08-09T13:18:28.247Z,100021.55
2018-08-09T13:21:04.674Z,100014.69
2018-08-09T13:23:33.451Z,100013.28
2018-08-09T13:26:02.301Z,100007.81
2018-08-09T13:28:31.066Z,99990.23
2018-08-09T13:30:59.825Z,99994.47
2018-08-09T13:33:28.638Z,99986.23
2018-08-09T13:35:57.459Z,99975.58
2018-08-09T13:38:26.606Z,99974.16
2018-08-09T13:40:57.109Z,99965.02
2018-08-09T13:43:25.932Z,99964.63
2018-08-09T13:45:55.669Z,99966.91
2018-08-09T13:48:24.386Z,99954.92
2018-08-09T13:50:53.333Z,99932.50
2018-08-09T13:53:23.982Z,99930.24
2018-08-09T13:55:53.520Z,99926.39
2018-08-09T13:58:24.690Z,99931.63
2018-08-09T14:00:57.331Z,99923.85
2018-08-09T14:03:29.728Z,99926.02
2018-08-09T14:06:02.166Z,99916.28
2018-08-09T14:08:31.404Z,99925.19
2018-08-09T14:11:00.097Z,99915.05
2018-08-09T14:13:29.024Z,99919.31
2018-08-09T14:15:57.694Z,99913.03
2018-08-09T14:18:26.455Z,99915.33
2018-08-09T14:20:55.236Z,99904.80
2018-08-09T14:23:23.928Z,99900.45
2018-08-09T14:25:52.657Z,99902.51
2018-08-09T14:28:21.387Z,99903.00
2018-08-09T14:30:50.936Z,99892.86
2018-08-09T14:33:20.237Z,99884.84
2018-08-09T14:35:49.041Z,99881.81
2018-08-09T14:38:20.474Z,99870.76
2018-08-09T14:40:49.489Z,99873.84
2018-08-09T14:43:36.830Z,99878.90
2018-08-09T14:46:05.554Z,99860.80
2018-08-09T14:48:34.345Z,99863.17
2018-08-09T14:51:03.013Z,99854.46
2018-08-09T14:53:33.096Z,99846.84
2018-08-09T14:56:01.887Z,99845.09
2018-08-09T14:58:34.435Z,99844.43
2018-08-09T15:01:03.205Z,99841.84
2018-08-09T15:03:33.999Z,99843.73
2018-08-09T15:06:02.853Z,99838.84
2018-08-09T15:08:31.702Z,99836.75
2018-08-09T15:16:53.672Z,99818.33
2018-08-09T15:19:22.751Z,99827.83
2018-08-09T15:21:52.047Z,99824.02
2018-08-09T15:24:21.185Z,99819.47
2018-08-09T15:29:45.268Z,99824.61
2018-08-09T15:32:15.937Z,99823.45
2018-08-09T15:34:44.878Z,99818.63
2018-08-09T15:40:09.996Z,99818.33
2018-08-09T15:42:45.987Z,99815.45
2018-08-09T15:51:09.285Z,99806.55
2018-08-09T15:53:38.137Z,99799.42
2018-08-09T15:56:06.941Z,99810.77
2018-08-09T15:58:36.840Z,99802.29
2018-08-09T16:01:12.795Z,99809.84
2018-08-09T16:03:41.553Z,99800.43
2018-08-09T16:06:10.509Z,99804.00
2018-08-09T16:08:53.697Z,99794.14
2018-08-09T16:11:19.201Z,99793.57
2018-08-09T16:13:47.939Z,99788.36
2018-08-09T16:16:17.874Z,99793.77
2018-08-09T16:18:46.601Z,99789.52
2018-08-09T16:21:15.350Z,99794.05
2018-08-09T16:23:44.102Z,99794.63
2018-08-09T16:26:12.845Z,99790.52
2018-08-09T16:28:41.634Z,99779.80
2018-08-09T16:31:10.437Z,99786.08
2018-08-09T16:33:39.309Z,99785.81
2018-08-09T16:36:08.124Z,99797.48
2018-08-09T16:38:40.097Z,99820.45
2018-08-09T16:41:09.215Z,99795.47
2018-08-09T16:43:41.250Z,99785.73
2018-08-09T16:46:09.866Z,99779.25
2018-08-09T16:48:38.862Z,99784.03
2018-08-09T16:51:09.154Z,99774.77
2018-08-09T16:53:39.324Z,99775.10
2018-08-09T16:56:08.307Z,99773.02
2018-08-09T16:58:39.785Z,99768.20
2018-08-09T17:01:18.781Z,99764.36
2018-08-09T17:03:50.166Z,99770.06
2018-08-09T17:06:20.420Z,99768.77
2018-08-09T17:08:49.490Z,99783.70
2018-08-09T17:11:18.525Z,99791.27
2018-08-09T17:13:47.957Z,99759.95
2018-08-09T17:16:17.632Z,99771.78
2018-08-09T17:18:46.535Z,99783.71
2018-08-09T17:21:18.097Z,99780.03
2018-08-09T17:23:48.357Z,99772.95
2018-08-09T17:26:21.824Z,99773.42
2018-08-09T17:28:54.782Z,99765.92
2018-08-09T17:31:30.390Z,99771.11
2018-08-09T17:33:59.180Z,99791.19
2018-08-09T17:36:27.782Z,99899.44
2018-08-09T17:38:58.852Z,99901.36
2018-08-09T17:41:30.974Z,99910.58
2018-08-09T17:44:05.965Z,99930.02
2018-08-09T17:46:34.435Z,99916.97
2018-08-09T17:49:06.320Z,99897.66
2018-08-09T17:51:34.855Z,99912.77
2018-08-09T17:54:03.558Z,99928.02
2018-08-09T17:56:32.279Z,99934.35
2018-08-09T17:59:00.932Z,99946.45
2018-08-09T18:01:29.560Z,99937.78
2018-08-09T18:03:58.208Z,99948.74
2018-08-09T18:06:27.063Z,99961.59
2018-08-09T18:09:02.216Z,99992.10
2018-08-09T18:11:31.831Z,100007.41
2018-08-09T18:14:00.504Z,100010.96
2018-08-09T18:16:40.297Z,100034.47
2018-08-09T18:19:10.541Z,100075.20
2018-08-09T18:21:42.237Z,100098.84
2018-08-09T18:24:12.392Z,100106.65
2018-08-09T18:26:48.169Z,100093.55
2018-08-09T18:29:20.520Z,100079.50
2018-08-09T18:31:53.020Z,100076.96
2018-08-09T18:34:31.209Z,100076.92
2018-08-09T18:37:01.829Z,100058.16
2018-08-09T18:39:33.403Z,100058.21
2018-08-09T18:42:05.089Z,100040.37
2018-08-09T18:44:36.478Z,100048.02
2018-08-09T18:47:06.292Z,100051.05
2018-08-09T18:49:38.359Z,100053.56
2018-08-09T18:52:07.568Z,100066.38
2018-08-09T18:54:36.390Z,100067.63
2018-08-09T18:57:07.674Z,100058.47
2018-08-09T19:02:26.729Z,100043.53
2018-08-09T19:04:58.398Z,100045.67
2018-08-09T19:07:29.760Z,100038.25
2018-08-09T19:10:01.486Z,100035.92
2018-08-09T19:12:35.379Z,100037.06
2018-08-09T19:15:08.432Z,100033.04
2018-08-09T19:17:37.447Z,100029.16
2018-08-09T19:20:06.378Z,100037.24
2018-08-09T19:22:35.856Z,100048.49
2018-08-09T19:25:06.189Z,100048.57
2018-08-09T19:27:36.032Z,100051.09
2018-08-09T19:30:07.156Z,100056.12
2018-08-09T19:35:26.751Z,100059.65
2018-08-09T19:37:58.867Z,100063.86
2018-08-09T19:40:25.727Z,100071.66
2018-08-09T19:42:56.004Z,100077.78
2018-08-09T19:45:27.576Z,100078.53
2018-08-09T19:47:57.717Z,100080.20
2018-08-09T19:50:29.377Z,100076.20
2018-08-09T19:52:58.950Z,100079.92
2018-08-09T19:55:29.288Z,100075.11
2018-08-09T19:58:00.672Z,100074.36
2018-08-09T20:00:31.959Z,100079.84
2018-08-09T20:03:01.273Z,100079.58
2018-08-09T20:05:38.156Z,100080.59
2018-08-09T20:08:07.027Z,100088.09
2018-08-09T20:10:38.285Z,100091.57
2018-08-09T20:13:10.203Z,100107.85
2018-08-09T20:15:39.850Z,100109.74
2018-08-09T20:18:08.503Z,100117.56
2018-08-09T20:26:14.394Z,100137.88
2018-08-09T20:28:44.117Z,100142.60
2018-08-09T20:31:12.752Z,100154.58
2018-08-09T20:33:41.475Z,100165.73
2018-08-09T20:36:10.097Z,100162.44
2018-08-09T20:38:38.725Z,100168.03
2018-08-09T20:41:07.517Z,100169.61
2018-08-09T20:43:37.173Z,100178.42
2018-08-09T20:46:05.837Z,100170.73
2018-08-09T20:48:34.458Z,100177.94
2018-08-09T20:51:07.802Z,100181.58
2018-08-09T20:53:36.464Z,100181.34
2018-08-09T20:56:15.561Z,100188.45
2018-08-09T20:58:51.758Z,100192.81
2018-08-09T21:03:45.226Z,100196.92
2018-08-09T21:06:15.546Z,100192.09
2018-08-09T21:08:44.570Z,100198.14
2018-08-09T21:11:13.099Z,100206.81
2018-08-09T21:13:41.936Z,100202.50
2018-08-09T21:16:10.606Z,100220.23
2018-08-09T21:18:39.612Z,100226.55
2018-08-09T21:21:08.824Z,100228.03
2018-08-09T21:23:40.682Z,100236.44
2018-08-09T21:26:09.356Z,100236.71
2018-08-09T21:28:38.179Z,100227.05
2018-08-09T21:31:07.363Z,100240.48
2018-08-09T21:33:35.997Z,100245.06
2018-08-09T21:36:18.061Z,100254.00
2018-08-09T21:44:22.118Z,100275.11
2018-08-09T21:49:47.693Z,100278.13
2018-08-09T21:52:19.153Z,100291.27
2018-08-09T21:57:37.823Z,100286.83
2018-08-09T22:00:06.788Z,100291.91
2018-08-09T22:02:35.839Z,100291.67
2018-08-09T22:05:04.927Z,100297.61
2018-08-09T22:07:39.882Z,100293.14
2018-08-09T22:10:11.361Z,100300.59
2018-08-09T22:12:46.240Z,100304.71
2018-08-09T22:15:21.288Z,100305.16
2018-08-09T22:18:05.016Z,100307.62
2018-08-09T22:20:43.174Z,100313.05
2018-08-09T22:23:12.380Z,100318.36
2018-08-09T22:28:33.715Z,100323.22
2018-08-09T22:31:02.725Z,100330.39
2018-08-09T22:33:31.704Z,100330.98
2018-08-09T22:36:00.742Z,100344.86
2018-08-09T22:38:29.885Z,100346.70
2018-08-09T22:40:58.843Z,100356.61
2018-08-09T22:43:28.018Z,100358.56
2018-08-09T22:45:59.211Z,100357.05
2018-08-09T22:48:28.363Z,100366.73
2018-08-09T22:50:57.355Z,100371.98
2018-08-09T22:53:26.413Z,100379.14
2018-08-09T22:55:55.571Z,100388.02
2018-08-09T22:58:24.441Z,100390.95
2018-08-09T23:00:53.417Z,100389.36
2018-08-09T23:03:22.242Z,100405.83
2018-08-09T23:05:51.118Z,100403.72
2018-08-09T23:08:19.954Z,100404.03
2018-08-09T23:10:49.116Z,100406.98
2018-08-09T23:16:06.569Z,100406.15
2018-08-09T23:18:51.986Z,100406.04
2018-08-09T23:21:37.762Z,100406.63
2018-08-09T23:24:06.664Z,100400.53
2018-08-09T23:26:35.766Z,100397.83
2018-08-09T23:29:05.773Z,100392.18
2018-08-09T23:31:34.791Z,100403.13
2018-08-09T23:34:03.857Z,100410.99
2018-08-09T23:36:32.803Z,100400.33
2018-08-09T23:39:01.778Z,100403.28
2018-08-09T23:41:30.726Z,100402.23
2018-08-09T23:49:34.985Z,100416.07
2018-08-09T23:52:04.229Z,100418.79
2018-08-09T23:54:33.050Z,100428.49
2018-08-09T23:57:01.681Z,100430.50
2018-08-09T23:59:30.320Z,100425.69
